Time;durP1;ratioP1;P1;durP2;ratioP2;P2;SDS_P1;SDS_P2;PMS_P1;PMS_P2;Temp;Humidity;BMP_temperature;BMP_pressure;BME280_temperature;BME280_humidity;BME280_pressure;Samples;Min_cycle;Max_cycle;Signal;HPM_P1;HPM_P2
2022/03/23 00:00:07;;;;;;;12.40;6.22;;;10.70;26.60;;;;;;4960213;28;20389;-74
2022/03/23 00:02:33;;;;;;;11.23;5.82;;;10.60;26.90;;;;;;4947431;29;20034;-75
2022/03/23 00:04:58;;;;;;;16.30;6.88;;;10.60;26.50;;;;;;4942545;28;20027;-74
2022/03/23 00:07:25;;;;;;;19.15;6.88;;;10.60;27.10;;;;;;4947713;29;20065;-75
2022/03/23 00:09:51;;;;;;;14.43;7.00;;;10.50;27.10;;;;;;4962874;28;20031;-75
2022/03/23 00:12:17;;;;;;;13.63;6.60;;;10.50;27.10;;;;;;4947413;29;20529;-75
2022/03/23 00:14:42;;;;;;;14.75;6.57;;;10.40;27.10;;;;;;4941555;28;20101;-74
2022/03/23 00:17:08;;;;;;;19.27;7.55;;;10.40;27.30;;;;;;4956439;28;20032;-75
2022/03/23 00:19:34;;;;;;;17.17;6.60;;;10.40;27.40;;;;;;4943817;28;20108;-74
2022/03/23 00:22:01;;;;;;;12.35;6.65;;;10.40;27.70;;;;;;4943685;28;20499;-75
2022/03/23 00:24:27;;;;;;;13.20;6.63;;;10.30;27.40;;;;;;4942043;29;20107;-74
2022/03/23 00:26:53;;;;;;;12.68;5.80;;;10.30;27.40;;;;;;4942227;29;20132;-75
2022/03/23 00:29:18;;;;;;;13.73;6.57;;;10.30;27.20;;;;;;4943610;28;20031;-74
2022/03/23 00:31:44;;;;;;;14.15;7.07;;;10.20;27.80;;;;;;4942941;29;20031;-74
2022/03/23 00:34:10;;;;;;;15.90;6.70;;;10.20;27.90;;;;;;4943202;28;20449;-75
2022/03/23 00:36:36;;;;;;;18.27;7.10;;;10.10;28.10;;;;;;4941734;29;20477;-75
2022/03/23 00:39:03;;;;;;;18.42;6.65;;;10.10;28.20;;;;;;4960536;28;20106;-75
2022/03/23 00:41:28;;;;;;;16.77;6.35;;;10.10;28.00;;;;;;4942032;29;20023;-75
2022/03/23 00:43:55;;;;;;;18.48;7.78;;;10.10;27.90;;;;;;4942686;28;20470;-75
2022/03/23 00:46:23;;;;;;;18.00;7.70;;;10.10;28.10;;;;;;4942984;29;20079;-74
2022/03/23 00:48:48;;;;;;;14.38;7.05;;;10.10;27.80;;;;;;4947945;29;20027;-74
2022/03/23 00:51:15;;;;;;;12.38;6.53;;;10.10;27.90;;;;;;4943078;28;20494;-75
2022/03/23 00:53:40;;;;;;;15.80;7.25;;;10.10;27.90;;;;;;4956694;28;20035;-74
2022/03/23 00:56:06;;;;;;;17.40;6.80;;;10.10;27.90;;;;;;4945222;28;20028;-74
2022/03/23 00:58:32;;;;;;;15.32;6.60;;;10.00;28.10;;;;;;4947035;28;20578;-75
2022/03/23 01:00:58;;;;;;;18.65;6.75;;;10.00;28.50;;;;;;4942837;28;20055;-75
2022/03/23 01:03:24;;;;;;;12.88;6.15;;;9.90;28.40;;;;;;4941530;29;20024;-75
2022/03/23 01:05:52;;;;;;;13.82;6.88;;;9.90;28.30;;;;;;4940491;29;20032;-75
2022/03/23 01:08:18;;;;;;;14.00;6.35;;;9.90;28.50;;;;;;4947196;29;20090;-75
2022/03/23 01:10:44;;;;;;;22.48;7.63;;;9.80;28.50;;;;;;4949672;29;20119;-75
2022/03/23 01:13:10;;;;;;;13.15;7.22;;;9.80;28.90;;;;;;4955351;28;20047;-74
2022/03/23 01:15:36;;;;;;;21.35;7.43;;;9.70;28.80;;;;;;4955066;29;20031;-75
2022/03/23 01:18:03;;;;;;;19.13;8.38;;;9.70;29.00;;;;;;4955077;28;20031;-75
2022/03/23 01:20:30;;;;;;;17.58;7.57;;;9.60;29.40;;;;;;4954426;28;20027;-75
2022/03/23 01:22:56;;;;;;;22.10;8.23;;;9.60;29.50;;;;;;4954962;28;20034;-74
2022/03/23 01:25:22;;;;;;;16.98;7.70;;;9.50;29.60;;;;;;4954325;28;20385;-75
2022/03/23 01:27:48;;;;;;;17.65;7.28;;;9.50;29.80;;;;;;4959787;28;20441;-74
2022/03/23 01:30:16;;;;;;;21.25;7.63;;;9.40;29.70;;;;;;4969710;28;20023;-74
2022/03/23 01:32:43;;;;;;;23.13;7.57;;;9.40;29.70;;;;;;4954604;29;20039;-75
2022/03/23 01:35:10;;;;;;;20.33;8.43;;;9.30;30.10;;;;;;4954926;28;20034;-75
2022/03/23 01:37:36;;;;;;;22.70;8.52;;;9.30;30.10;;;;;;4953937;28;20478;-75
2022/03/23 01:40:06;;;;;;;20.58;8.15;;;9.30;30.10;;;;;;4954758;28;20046;-74
2022/03/23 01:42:32;;;;;;;21.90;8.93;;;9.20;30.80;;;;;;4968877;28;20114;-74
2022/03/23 01:44:57;;;;;;;15.35;7.18;;;9.20;30.20;;;;;;4954891;28;20034;-74
2022/03/23 01:47:24;;;;;;;15.32;7.93;;;9.20;30.00;;;;;;4954324;28;20027;-74
2022/03/23 01:49:53;;;;;;;17.70;8.15;;;9.20;30.10;;;;;;4954855;28;20034;-74
2022/03/23 01:52:23;;;;;;;17.42;8.07;;;9.20;30.70;;;;;;4953664;29;20110;-74
2022/03/23 01:54:49;;;;;;;15.95;7.57;;;9.10;30.50;;;;;;4969528;28;20035;-75
2022/03/23 01:57:17;;;;;;;16.70;7.88;;;9.10;30.30;;;;;;4955464;28;20019;-74
2022/03/23 01:59:43;;;;;;;14.43;6.90;;;9.10;30.10;;;;;;4954546;28;20078;-74
2022/03/23 02:02:10;;;;;;;13.80;7.30;;;9.10;30.10;;;;;;4970908;28;20397;-74
2022/03/23 02:04:36;;;;;;;15.02;7.10;;;9.00;30.30;;;;;;4973434;28;20090;-74
2022/03/23 02:07:03;;;;;;;16.45;7.70;;;9.00;30.20;;;;;;4958299;28;20054;-74
2022/03/23 02:09:30;;;;;;;17.17;8.25;;;8.90;30.80;;;;;;4956925;29;20031;-74
2022/03/23 02:11:57;;;;;;;17.67;7.78;;;8.90;30.80;;;;;;4956414;29;20445;-74
2022/03/23 02:14:23;;;;;;;18.42;8.05;;;8.80;30.90;;;;;;4972860;28;20035;-75
2022/03/23 02:16:51;;;;;;;19.70;8.27;;;8.80;30.90;;;;;;4957941;28;20023;-75
2022/03/23 02:19:18;;;;;;;14.02;7.40;;;8.70;30.60;;;;;;4958156;28;20500;-74
2022/03/23 02:21:48;;;;;;;20.33;7.38;;;8.70;30.60;;;;;;4958380;29;20019;-75
2022/03/23 02:24:16;;;;;;;15.20;7.60;;;8.60;30.80;;;;;;4967436;28;20031;-75
2022/03/23 02:26:42;;;;;;;21.40;8.10;;;8.60;30.90;;;;;;4957550;29;20031;-75
2022/03/23 02:29:09;;;;;;;20.20;7.78;;;8.50;31.50;;;;;;4957821;28;20027;-75
2022/03/23 02:31:35;;;;;;;16.73;8.20;;;8.50;31.80;;;;;;4958013;28;20492;-74
2022/03/23 02:34:03;;;;;;;16.45;7.18;;;8.50;31.70;;;;;;4972510;28;20031;-74
2022/03/23 02:36:30;;;;;;;17.30;7.28;;;8.40;31.50;;;;;;4957864;28;20393;-74
2022/03/23 02:38:55;;;;;;;20.08;7.55;;;8.40;31.70;;;;;;4957307;28;20031;-74
2022/03/23 02:41:21;;;;;;;20.13;8.05;;;8.40;31.70;;;;;;4955948;29;20034;-74
2022/03/23 02:43:48;;;;;;;17.90;8.02;;;8.30;31.80;;;;;;4957500;28;20474;-75
2022/03/23 02:46:18;;;;;;;26.40;9.10;;;8.30;31.90;;;;;;4956524;29;20552;-75
2022/03/23 02:48:45;;;;;;;20.17;9.02;;;8.30;32.70;;;;;;4957205;28;20086;-74
2022/03/23 02:51:11;;;;;;;21.17;9.15;;;8.20;33.00;;;;;;4957281;28;20036;-74
2022/03/23 03:02:39;;;;;;;16.52;7.40;;;8.10;32.70;;;;;;4937318;29;20087;-74
2022/03/23 03:05:07;;;;;;;19.80;7.38;;;8.10;32.30;;;;;;4948255;29;20127;-74
2022/03/23 03:10:30;;;;;;;14.20;6.38;;;8.00;32.20;;;;;;4945679;29;20047;-74
2022/03/23 03:12:56;;;;;;;16.60;7.65;;;8.00;32.40;;;;;;4972011;28;20027;-75
2022/03/23 03:15:22;;;;;;;20.92;6.80;;;7.90;32.70;;;;;;4957234;29;20437;-74
2022/03/23 03:17:48;;;;;;;16.30;7.03;;;7.90;33.00;;;;;;4956984;28;20038;-74
2022/03/23 03:20:15;;;;;;;15.10;6.70;;;7.90;33.50;;;;;;4956705;28;20023;-74
2022/03/23 03:22:42;;;;;;;21.98;8.35;;;7.80;33.40;;;;;;4956479;28;20038;-74
2022/03/23 03:25:12;;;;;;;17.02;6.90;;;7.80;34.10;;;;;;4955318;28;20020;-74
2022/03/23 03:27:39;;;;;;;16.08;7.05;;;7.80;34.00;;;;;;4954612;28;20098;-74
2022/03/23 03:30:07;;;;;;;28.88;9.07;;;7.80;33.90;;;;;;4954657;29;20441;-74
2022/03/23 03:32:33;;;;;;;20.42;8.63;;;7.80;34.10;;;;;;4955503;28;20027;-74
2022/03/23 03:34:59;;;;;;;16.98;7.90;;;7.70;34.00;;;;;;4955496;28;20440;-74
2022/03/23 03:37:25;;;;;;;14.52;6.93;;;7.70;34.10;;;;;;4955576;28;20061;-74
2022/03/23 03:39:51;;;;;;;13.80;6.82;;;7.70;34.20;;;;;;4954992;29;20062;-74
2022/03/23 03:42:18;;;;;;;16.13;7.03;;;7.70;34.20;;;;;;4956096;28;20035;-74
2022/03/23 03:44:45;;;;;;;17.42;6.68;;;7.60;34.00;;;;;;4956590;28;20043;-73
2022/03/23 03:47:11;;;;;;;16.63;6.68;;;7.60;34.00;;;;;;4954528;29;20023;-74
2022/03/23 03:49:37;;;;;;;15.75;7.18;;;7.60;34.20;;;;;;4955524;29;20024;-74
2022/03/23 03:52:04;;;;;;;17.70;8.02;;;7.50;34.30;;;;;;4956675;28;20027;-74
2022/03/23 03:54:30;;;;;;;14.05;7.15;;;7.50;34.60;;;;;;4955393;28;20561;-74
2022/03/23 03:56:56;;;;;;;17.08;7.45;;;7.50;34.50;;;;;;4956613;29;20031;-74
2022/03/23 03:59:22;;;;;;;22.17;8.25;;;7.50;34.80;;;;;;4955816;28;20428;-74
2022/03/23 04:01:49;;;;;;;17.45;7.40;;;7.40;34.40;;;;;;4956006;28;20467;-74
2022/03/23 04:04:14;;;;;;;14.95;7.05;;;7.40;34.70;;;;;;4956532;28;20031;-74
2022/03/23 04:06:40;;;;;;;18.80;7.68;;;7.40;34.90;;;;;;4954396;28;20401;-74
2022/03/23 04:09:06;;;;;;;18.30;6.53;;;7.40;35.30;;;;;;4955770;28;20070;-74
2022/03/23 04:11:32;;;;;;;20.80;7.00;;;7.40;35.20;;;;;;4955736;28;20038;-74
2022/03/23 04:13:58;;;;;;;12.50;6.28;;;7.30;35.20;;;;;;4955972;28;20039;-74
2022/03/23 04:16:24;;;;;;;13.30;6.85;;;7.30;35.90;;;;;;4971061;28;20548;-74
2022/03/23 04:18:49;;;;;;;15.18;6.57;;;7.30;35.20;;;;;;4955675;28;20452;-74
2022/03/23 04:21:15;;;;;;;11.95;6.47;;;7.30;35.30;;;;;;4956114;28;20370;-74
2022/03/23 04:23:41;;;;;;;10.57;6.53;;;7.30;35.20;;;;;;4956104;28;20030;-74
2022/03/23 04:26:07;;;;;;;11.40;6.28;;;7.20;35.50;;;;;;4955178;28;20023;-74
2022/03/23 04:28:33;;;;;;;15.85;6.35;;;7.20;35.50;;;;;;4955710;28;20047;-74
2022/03/23 04:30:59;;;;;;;11.27;6.07;;;7.20;35.60;;;;;;4955678;28;20031;-74
2022/03/23 04:33:25;;;;;;;14.55;7.00;;;7.10;35.50;;;;;;4955095;28;20027;-74
2022/03/23 04:35:51;;;;;;;13.82;5.97;;;7.10;35.50;;;;;;4955814;28;20023;-74
2022/03/23 04:38:17;;;;;;;14.45;7.15;;;7.10;35.60;;;;;;4954590;28;20027;-74
2022/03/23 04:40:42;;;;;;;13.35;6.25;;;7.10;35.90;;;;;;4955357;28;20492;-74
2022/03/23 04:43:08;;;;;;;14.88;6.78;;;7.10;35.90;;;;;;4955104;28;20023;-74
2022/03/23 04:45:34;;;;;;;15.45;6.97;;;7.10;35.80;;;;;;4955700;28;20024;-74
2022/03/23 04:48:00;;;;;;;15.05;7.65;;;7.00;35.60;;;;;;4955678;28;20027;-74
2022/03/23 04:50:25;;;;;;;13.00;7.00;;;7.00;36.40;;;;;;4955340;29;20024;-74
2022/03/23 04:52:52;;;;;;;12.52;6.53;;;7.00;36.20;;;;;;4970338;28;20473;-74
2022/03/23 04:55:18;;;;;;;14.18;7.40;;;7.00;36.30;;;;;;4955170;28;20027;-74
2022/03/23 04:57:44;;;;;;;15.15;7.20;;;7.00;37.00;;;;;;4953780;28;20066;-74
2022/03/23 05:00:13;;;;;;;13.70;6.50;;;7.00;37.70;;;;;;4970143;28;20485;-74
2022/03/23 05:02:40;;;;;;;16.92;6.45;;;7.00;36.90;;;;;;4954957;28;20449;-74
2022/03/23 05:05:07;;;;;;;17.95;7.47;;;7.00;37.30;;;;;;4954997;28;20031;-74
2022/03/23 05:07:33;;;;;;;11.10;6.15;;;7.00;37.50;;;;;;4955164;28;20028;-74
2022/03/23 05:09:59;;;;;;;14.88;7.68;;;6.90;37.10;;;;;;4955037;28;20050;-74
2022/03/23 05:12:25;;;;;;;14.63;7.15;;;6.90;37.20;;;;;;4954961;28;20027;-74
2022/03/23 05:14:51;;;;;;;26.83;7.38;;;6.90;37.30;;;;;;4955151;29;20386;-74
2022/03/23 05:17:17;;;;;;;15.07;6.35;;;6.90;37.40;;;;;;4955130;28;20054;-74
2022/03/23 05:19:44;;;;;;;15.02;6.85;;;6.90;37.30;;;;;;4969524;28;20081;-74
2022/03/23 05:22:11;;;;;;;18.23;8.15;;;6.90;37.60;;;;;;4969804;28;20039;-74
2022/03/23 05:24:37;;;;;;;15.90;8.52;;;6.90;37.50;;;;;;4954680;28;20016;-74
2022/03/23 05:27:03;;;;;;;17.15;6.68;;;6.90;37.30;;;;;;4955006;28;20027;-74
2022/03/23 05:29:29;;;;;;;21.98;8.57;;;6.90;37.30;;;;;;4954920;28;20037;-74
2022/03/23 05:31:55;;;;;;;15.48;7.90;;;7.00;37.90;;;;;;4954510;28;20023;-74
2022/03/23 05:34:21;;;;;;;22.30;6.90;;;7.00;37.90;;;;;;4954978;28;20066;-74
2022/03/23 05:36:47;;;;;;;16.73;7.97;;;7.00;37.70;;;;;;4954605;28;20031;-74
2022/03/23 05:39:13;;;;;;;16.23;6.93;;;7.00;37.40;;;;;;4954310;28;20097;-74
2022/03/23 05:41:39;;;;;;;16.23;7.35;;;7.00;37.60;;;;;;4954346;28;20023;-74
2022/03/23 05:44:05;;;;;;;16.17;7.75;;;7.10;37.70;;;;;;4954281;28;20488;-74
2022/03/23 05:46:31;;;;;;;18.35;7.85;;;7.10;37.90;;;;;;4954568;28;20027;-74
2022/03/23 05:48:57;;;;;;;20.83;8.10;;;7.10;38.00;;;;;;4954810;28;20026;-74
2022/03/23 05:51:23;;;;;;;19.70;7.40;;;7.20;38.20;;;;;;4954864;28;20035;-74
2022/03/23 05:53:50;;;;;;;14.25;7.38;;;7.20;38.40;;;;;;4954429;28;20038;-74
2022/03/23 05:56:16;;;;;;;13.38;5.68;;;7.30;38.00;;;;;;4955248;28;20426;-74
2022/03/23 05:58:42;;;;;;;14.80;6.78;;;7.40;37.70;;;;;;4954431;28;20055;-74
2022/03/23 06:01:08;;;;;;;17.58;6.38;;;7.40;37.40;;;;;;4954819;28;20027;-74
2022/03/23 06:03:35;;;;;;;21.30;6.20;;;7.50;37.30;;;;;;4954618;28;20031;-74
2022/03/23 06:06:01;;;;;;;11.43;6.03;;;7.50;37.20;;;;;;4954829;28;20031;-74
2022/03/23 06:08:27;;;;;;;14.52;6.95;;;7.60;37.10;;;;;;4954856;28;20131;-75
2022/03/23 06:10:53;;;;;;;10.77;6.57;;;7.70;36.90;;;;;;4954033;28;20501;-74
2022/03/23 06:13:19;;;;;;;17.00;7.15;;;7.70;36.90;;;;;;4954176;28;20035;-74
2022/03/23 06:15:46;;;;;;;21.67;8.75;;;7.80;37.00;;;;;;4954526;28;20469;-74
2022/03/23 06:18:12;;;;;;;15.43;7.85;;;7.90;37.20;;;;;;4952728;29;20046;-74
2022/03/23 06:20:38;;;;;;;22.77;8.05;;;7.90;37.00;;;;;;4953714;28;20477;-74
2022/03/23 06:23:05;;;;;;;24.15;8.40;;;8.00;37.10;;;;;;4953083;28;20447;-74
2022/03/23 06:25:32;;;;;;;13.63;6.63;;;8.10;36.80;;;;;;4952098;28;20015;-74
2022/03/23 06:27:58;;;;;;;19.75;8.45;;;8.20;36.50;;;;;;4953976;28;20030;-74
2022/03/23 06:30:24;;;;;;;15.05;7.68;;;8.30;36.70;;;;;;4953698;28;20556;-74
2022/03/23 06:32:49;;;;;;;16.38;7.47;;;8.40;37.30;;;;;;4953361;28;20043;-74
2022/03/23 06:35:16;;;;;;;17.65;6.78;;;8.40;37.00;;;;;;4953370;28;20024;-74
2022/03/23 06:37:43;;;;;;;18.23;7.38;;;8.50;37.00;;;;;;4953016;28;20035;-74
2022/03/23 06:40:09;;;;;;;13.98;7.32;;;8.60;37.50;;;;;;4954874;28;20028;-74
2022/03/23 06:42:36;;;;;;;14.63;6.53;;;8.70;37.80;;;;;;4953156;28;20437;-73
2022/03/23 06:45:02;;;;;;;20.83;7.40;;;8.80;37.80;;;;;;4954136;28;20024;-74
2022/03/23 06:47:29;;;;;;;14.27;6.93;;;8.80;37.80;;;;;;4951565;28;20031;-73
2022/03/23 06:49:55;;;;;;;14.63;7.05;;;8.90;38.00;;;;;;4958496;28;20027;-74
2022/03/23 06:52:21;;;;;;;12.98;6.55;;;9.00;38.20;;;;;;4954384;28;20027;-74
2022/03/23 06:54:46;;;;;;;17.60;7.63;;;9.00;38.20;;;;;;4956737;28;20086;-74
2022/03/23 06:57:15;;;;;;;12.32;6.57;;;9.10;38.10;;;;;;4955283;29;20489;-74
2022/03/23 06:59:41;;;;;;;16.55;6.70;;;9.10;37.50;;;;;;4958364;28;20473;-75
2022/03/23 07:02:10;;;;;;;10.30;5.40;;;9.20;37.10;;;;;;4957123;28;20066;-75
2022/03/23 07:04:36;;;;;;;34.28;7.32;;;9.30;36.80;;;;;;4972361;28;20082;-74
2022/03/23 07:07:05;;;;;;;11.32;6.22;;;9.30;36.60;;;;;;4957381;28;20035;-74
2022/03/23 07:09:31;;;;;;;14.23;6.55;;;9.40;36.70;;;;;;4956808;29;20458;-74
2022/03/23 07:11:58;;;;;;;10.02;6.32;;;9.50;36.70;;;;;;4956898;28;20030;-74
2022/03/23 07:14:24;;;;;;;12.25;6.68;;;9.60;36.70;;;;;;4957319;28;20027;-75
2022/03/23 07:16:50;;;;;;;14.23;6.85;;;9.70;36.80;;;;;;4957215;28;20114;-75
2022/03/23 07:19:16;;;;;;;28.45;7.20;;;9.70;36.80;;;;;;4956033;28;20115;-74
2022/03/23 07:21:42;;;;;;;12.75;6.30;;;9.80;36.50;;;;;;4955824;28;20058;-75
2022/03/23 07:24:08;;;;;;;15.93;6.65;;;9.90;36.20;;;;;;4956984;28;20019;-74
2022/03/23 07:26:34;;;;;;;13.18;7.00;;;9.90;35.80;;;;;;4955520;28;20023;-75
2022/03/23 07:29:01;;;;;;;24.85;9.13;;;10.00;35.80;;;;;;4955626;28;20035;-75
2022/03/23 07:31:27;;;;;;;17.10;8.25;;;10.10;36.10;;;;;;4956900;28;20035;-74
2022/03/23 07:33:52;;;;;;;19.23;8.30;;;10.20;35.90;;;;;;4955731;28;20026;-74
2022/03/23 07:36:18;;;;;;;15.57;8.15;;;10.30;36.00;;;;;;4955866;29;20490;-74
2022/03/23 07:38:44;;;;;;;20.98;8.52;;;10.30;35.70;;;;;;4957255;28;20384;-74
2022/03/23 07:41:10;;;;;;;20.83;8.70;;;10.40;36.50;;;;;;4956265;28;20039;-75
2022/03/23 07:43:35;;;;;;;20.55;8.27;;;10.50;36.20;;;;;;4956841;29;20032;-74
2022/03/23 07:46:01;;;;;;;24.27;8.60;;;10.60;35.80;;;;;;4956632;28;20024;-75
2022/03/23 07:48:27;;;;;;;18.92;8.23;;;10.60;35.30;;;;;;4956951;29;20421;-74
2022/03/23 07:50:53;;;;;;;20.48;10.32;;;10.70;35.10;;;;;;4970438;28;20535;-75
2022/03/23 07:53:19;;;;;;;23.35;11.07;;;10.80;34.70;;;;;;4958992;28;20058;-75
2022/03/23 07:55:45;;;;;;;23.85;11.75;;;10.90;34.30;;;;;;4974300;28;20449;-74
2022/03/23 07:58:12;;;;;;;27.33;12.48;;;11.00;34.10;;;;;;4990675;28;20129;-74
2022/03/23 08:00:38;;;;;;;35.85;13.30;;;11.10;34.40;;;;;;4974760;28;20038;-74
2022/03/23 08:03:05;;;;;;;33.42;12.77;;;11.20;34.00;;;;;;4955172;28;20028;-75
2022/03/23 08:05:32;;;;;;;24.77;12.70;;;11.30;33.60;;;;;;4975376;28;20026;-75
2022/03/23 08:07:58;;;;;;;44.70;14.60;;;11.40;33.40;;;;;;4961887;28;20484;-75
2022/03/23 08:10:28;;;;;;;40.63;13.48;;;11.50;33.10;;;;;;4976843;28;20039;-74
2022/03/23 08:12:54;;;;;;;40.63;14.65;;;11.50;32.70;;;;;;4935228;28;20036;-74
2022/03/23 08:15:20;;;;;;;22.92;11.68;;;11.60;32.30;;;;;;4970110;28;20043;-75
2022/03/23 08:17:46;;;;;;;39.22;13.93;;;11.70;32.30;;;;;;4972881;28;20027;-74
2022/03/23 08:23:10;;;;;;;41.10;15.40;;;11.90;31.60;;;;;;4971875;28;20098;-75
2022/03/23 08:25:42;;;;;;;34.45;14.57;;;12.00;32.30;;;;;;4956615;28;20493;-73
2022/03/23 08:28:12;;;;;;;32.65;15.60;;;12.10;32.20;;;;;;4953953;29;20063;-74
2022/03/23 08:30:39;;;;;;;37.58;14.20;;;12.20;31.70;;;;;;4955922;28;20055;-74
2022/03/23 08:33:05;;;;;;;33.10;14.82;;;12.30;31.30;;;;;;4954757;28;20066;-74
2022/03/23 08:35:31;;;;;;;30.02;13.23;;;12.30;30.90;;;;;;4951206;28;20032;-74
2022/03/23 08:37:58;;;;;;;30.20;13.48;;;12.50;30.80;;;;;;4954683;28;20037;-74
2022/03/23 08:40:27;;;;;;;26.05;11.93;;;12.50;30.40;;;;;;4969989;28;20118;-74
2022/03/23 08:42:58;;;;;;;38.38;13.70;;;12.60;30.30;;;;;;4975196;28;20036;-74
2022/03/23 08:45:27;;;;;;;29.02;13.38;;;12.70;30.00;;;;;;4973331;28;20034;-75
2022/03/23 08:47:54;;;;;;;27.10;12.10;;;12.80;30.00;;;;;;4974266;28;20544;-74
2022/03/23 08:50:20;;;;;;;36.40;12.95;;;12.90;29.70;;;;;;4973268;28;20478;-74
2022/03/23 08:52:46;;;;;;;34.95;12.68;;;13.00;29.40;;;;;;4974529;28;20022;-74
2022/03/23 08:55:19;;;;;;;25.50;11.48;;;13.00;29.20;;;;;;4973327;28;20357;-74
2022/03/23 08:57:46;;;;;;;23.77;10.50;;;13.10;29.30;;;;;;4972900;28;20059;-74
2022/03/23 09:00:12;;;;;;;25.75;10.10;;;13.20;29.10;;;;;;4964671;28;20038;-74
2022/03/23 09:02:38;;;;;;;28.75;9.50;;;13.30;28.70;;;;;;4954890;28;20033;-74
2022/03/23 09:05:05;;;;;;;23.23;8.93;;;13.40;28.60;;;;;;4954800;28;20065;-74
2022/03/23 09:07:33;;;;;;;12.93;7.05;;;13.50;28.00;;;;;;4952741;29;20030;-73
2022/03/23 09:10:02;;;;;;;18.20;7.07;;;13.50;27.60;;;;;;4954784;28;20054;-74
2022/03/23 09:12:28;;;;;;;20.95;6.93;;;13.60;27.10;;;;;;4954284;28;20034;-74
2022/03/23 09:14:53;;;;;;;12.68;7.03;;;13.70;26.40;;;;;;4954741;29;20384;-74
2022/03/23 09:17:19;;;;;;;11.88;5.82;;;13.80;26.80;;;;;;4954914;29;20028;-74
2022/03/23 09:19:45;;;;;;;15.02;6.90;;;13.90;26.60;;;;;;4954433;28;20038;-73
2022/03/23 09:22:10;;;;;;;16.40;6.35;;;14.00;26.60;;;;;;4953540;28;20038;-74
2022/03/23 09:24:36;;;;;;;14.45;7.20;;;14.00;26.40;;;;;;4953920;28;20363;-74
2022/03/23 09:27:03;;;;;;;14.73;7.15;;;14.10;26.20;;;;;;4953395;28;20082;-74
2022/03/23 09:29:29;;;;;;;17.20;6.95;;;14.10;25.90;;;;;;4954721;28;20034;-74
2022/03/23 09:31:55;;;;;;;23.58;7.70;;;14.20;26.10;;;;;;4954469;28;20031;-74
2022/03/23 09:34:21;;;;;;;16.58;7.15;;;14.30;25.50;;;;;;4954503;28;20031;-74
2022/03/23 09:39:31;;;;;;;13.00;5.82;;;14.50;25.00;;;;;;4954733;29;20059;-74
2022/03/23 09:41:58;;;;;;;22.52;6.68;;;14.60;25.10;;;;;;4959774;28;20035;-74
2022/03/23 09:44:28;;;;;;;12.52;5.47;;;14.70;25.20;;;;;;4954374;28;20393;-73
2022/03/23 09:46:55;;;;;;;10.70;5.55;;;14.80;24.60;;;;;;4954250;29;20039;-74
2022/03/23 09:49:23;;;;;;;18.02;6.55;;;14.90;24.80;;;;;;4954542;28;20024;-74
2022/03/23 09:51:53;;;;;;;10.93;6.72;;;15.00;24.20;;;;;;4954425;28;20024;-74
2022/03/23 09:54:21;;;;;;;8.52;5.43;;;15.00;24.60;;;;;;4969005;28;20183;-74
2022/03/23 09:56:49;;;;;;;11.73;5.63;;;15.10;24.90;;;;;;4954238;29;20046;-74
2022/03/23 09:59:15;;;;;;;9.93;5.43;;;15.20;24.60;;;;;;4954172;28;20083;-74
2022/03/23 10:02:00;;;;;;;11.43;6.03;;;15.30;24.30;;;;;;4953885;28;20074;-74
2022/03/23 10:04:54;;;;;;;11.65;5.00;;;15.40;24.20;;;;;;4954318;29;20031;-74
2022/03/23 10:07:45;;;;;;;14.25;5.13;;;15.50;24.10;;;;;;4969113;28;20023;-74
2022/03/23 10:10:19;;;;;;;8.65;5.43;;;15.60;24.20;;;;;;4954346;28;20027;-74
2022/03/23 10:13:43;;;;;;;10.13;5.55;;;15.70;23.70;;;;;;4954110;28;20023;-74
2022/03/23 10:16:45;;;;;;;13.60;5.97;;;15.80;23.80;;;;;;4951845;29;20069;-74
2022/03/23 10:19:13;;;;;;;12.23;6.25;;;15.80;23.50;;;;;;4951063;29;20043;-74
2022/03/23 10:21:39;;;;;;;13.20;5.75;;;15.90;23.60;;;;;;4947167;28;20039;-73
2022/03/23 10:24:05;;;;;;;10.15;4.95;;;16.00;22.80;;;;;;4954223;28;20035;-74
2022/03/23 10:26:33;;;;;;;10.82;6.28;;;16.00;23.60;;;;;;4943085;29;20023;-74
2022/03/23 10:29:00;;;;;;;13.30;6.50;;;16.10;23.20;;;;;;4948261;28;20024;-74
2022/03/23 10:31:27;;;;;;;13.70;6.70;;;16.10;23.20;;;;;;4968231;28;20043;-74
2022/03/23 10:34:11;;;;;;;12.93;6.07;;;16.20;23.50;;;;;;4953513;28;20044;-74
2022/03/23 10:36:39;;;;;;;10.43;5.95;;;16.30;23.30;;;;;;4951917;29;20027;-73
2022/03/23 10:39:10;;;;;;;14.52;6.90;;;16.30;22.90;;;;;;4969431;28;20166;-74
2022/03/23 10:41:36;;;;;;;10.93;5.38;;;16.40;22.70;;;;;;4945370;29;20035;-74
2022/03/23 10:44:02;;;;;;;16.08;5.47;;;16.40;22.60;;;;;;4957543;28;20024;-74
2022/03/23 10:46:28;;;;;;;9.73;5.47;;;16.50;23.00;;;;;;4957573;28;20031;-74
2022/03/23 10:49:04;;;;;;;10.50;4.85;;;16.60;23.40;;;;;;4971884;28;20491;-74
2022/03/23 10:51:32;;;;;;;11.45;4.70;;;16.60;22.60;;;;;;4992049;28;20069;-74
2022/03/23 10:54:12;;;;;;;14.55;5.05;;;16.70;22.70;;;;;;4980716;28;20035;-74
2022/03/23 10:56:38;;;;;;;17.52;6.25;;;16.70;22.40;;;;;;4956358;28;20110;-74
2022/03/23 10:59:22;;;;;;;17.38;6.00;;;16.70;22.10;;;;;;4990296;28;20051;-74
2022/03/23 11:02:06;;;;;;;11.30;5.93;;;16.80;21.80;;;;;;4979376;28;20027;-74
2022/03/23 11:04:50;;;;;;;10.77;5.60;;;16.90;21.90;;;;;;4964606;28;20032;-74
2022/03/23 11:07:29;;;;;;;14.93;6.15;;;16.90;22.30;;;;;;4957317;28;20050;-74
2022/03/23 11:18:10;;;;;;;;;;;17.10;21.90;;;;;;4957747;29;20042;-74
2022/03/23 11:20:44;;;;;;;15.60;6.05;;;17.20;22.70;;;;;;4957509;28;19910;-74
2022/03/23 11:23:28;;;;;;;10.50;6.43;;;17.30;21.90;;;;;;4955838;29;20058;-74
2022/03/23 11:26:02;;;;;;;14.50;6.38;;;17.40;22.10;;;;;;4954815;28;20019;-74
2022/03/23 11:28:29;;;;;;;;;;;17.40;21.90;;;;;;4957309;28;20051;-73
2022/03/23 11:30:56;;;;;;;15.18;6.15;;;17.50;22.40;;;;;;4956065;29;19934;-74
2022/03/23 11:33:24;;;;;;;11.90;6.38;;;17.50;21.30;;;;;;4956640;28;20034;-74
2022/03/23 11:35:52;;;;;;;21.63;7.80;;;17.50;21.10;;;;;;4955163;28;20459;-74
2022/03/23 11:38:28;;;;;;;12.82;6.93;;;17.60;20.50;;;;;;4955513;28;20023;-74
2022/03/23 11:40:55;;;;;;;15.30;6.55;;;17.60;20.50;;;;;;4952491;29;20027;-74
2022/03/23 11:43:24;;;;;;;19.08;7.20;;;17.70;20.60;;;;;;4954158;29;20050;-74
2022/03/23 11:45:52;;;;;;;17.17;6.57;;;17.70;21.30;;;;;;4954634;28;20054;-74
2022/03/23 11:48:30;;;;;;;13.25;6.65;;;17.80;20.80;;;;;;4955462;28;20054;-74
2022/03/23 11:51:11;;;;;;;11.75;6.45;;;17.80;20.60;;;;;;4953871;29;20075;-74
2022/03/23 11:54:01;;;;;;;12.40;6.00;;;17.90;21.10;;;;;;4953828;29;20023;-74
2022/03/23 11:56:32;;;;;;;20.55;7.15;;;17.90;20.40;;;;;;4953276;28;20023;-74
2022/03/23 11:59:21;;;;;;;16.80;6.85;;;18.00;19.90;;;;;;4955055;29;20070;-74
2022/03/23 12:01:47;;;;;;;11.43;6.35;;;18.00;20.10;;;;;;4970166;28;20031;-74
2022/03/23 12:04:17;;;;;;;12.15;6.35;;;18.10;19.60;;;;;;4956036;28;20019;-74
2022/03/23 12:06:44;;;;;;;22.67;6.90;;;18.10;19.80;;;;;;4955202;29;20098;-74
2022/03/23 12:09:31;;;;;;;12.38;6.38;;;18.20;19.20;;;;;;4954830;29;20031;-74
2022/03/23 12:11:57;;;;;;;14.45;5.75;;;18.20;19.40;;;;;;4949069;29;20033;-74
2022/03/23 12:14:25;;;;;;;11.27;6.25;;;18.30;19.50;;;;;;4970227;28;20027;-74
2022/03/23 12:16:53;;;;;;;17.13;6.22;;;18.30;19.40;;;;;;4956220;28;20061;-74
2022/03/23 12:19:31;;;;;;;12.85;6.03;;;18.40;19.50;;;;;;4955310;28;20031;-74
2022/03/23 12:22:06;;;;;;;9.30;5.40;;;18.40;18.90;;;;;;4955760;28;20031;-74
2022/03/23 12:24:54;;;;;;;10.23;4.85;;;18.50;18.90;;;;;;4955133;28;20094;-74
2022/03/23 12:27:32;;;;;;;10.48;5.10;;;18.50;19.30;;;;;;4954160;29;20621;-73
2022/03/23 12:30:01;;;;;;;12.40;5.45;;;18.60;19.00;;;;;;4955622;29;20024;-74
2022/03/23 12:32:37;;;;;;;9.63;4.65;;;18.60;18.80;;;;;;4955385;28;20029;-74
2022/03/23 12:35:05;;;;;;;9.30;4.57;;;18.70;18.10;;;;;;4954495;29;20035;-74
2022/03/23 12:37:49;;;;;;;8.45;4.00;;;18.70;18.30;;;;;;4955927;28;20020;-74
2022/03/23 12:40:15;;;;;;;5.80;3.28;;;18.80;17.70;;;;;;4955132;28;20359;-76
2022/03/23 12:42:46;;;;;;;16.88;4.43;;;18.90;18.10;;;;;;4954571;28;20031;-73
2022/03/23 12:45:18;;;;;;;7.93;4.38;;;18.90;17.20;;;;;;4955038;28;20031;-72
2022/03/23 12:47:59;;;;;;;8.45;4.07;;;18.90;17.20;;;;;;4955505;28;20023;-73
2022/03/23 12:59:18;;;;;;;9.57;4.30;;;19.20;18.00;;;;;;4954570;29;20056;-73
2022/03/23 13:01:45;;;;;;;8.88;3.80;;;19.30;17.60;;;;;;4954658;28;20074;-73
2022/03/23 13:04:44;;;;;;;6.55;3.70;;;19.30;17.50;;;;;;4954189;28;20020;-73
2022/03/23 13:07:28;;;;;;;9.80;3.40;;;19.40;17.70;;;;;;4954496;29;20027;-73
2022/03/23 13:10:06;;;;;;;4.15;2.63;;;19.50;17.50;;;;;;4965336;28;20355;-73
2022/03/23 13:12:32;;;;;;;7.78;3.55;;;19.50;17.10;;;;;;4968329;28;20035;-73
2022/03/23 13:14:59;;;;;;;8.55;3.58;;;19.60;17.30;;;;;;4952972;29;20645;-73
2022/03/23 13:17:26;;;;;;;4.45;3.25;;;19.70;17.40;;;;;;4953783;28;20035;-73
2022/03/23 13:19:59;;;;;;;7.10;3.08;;;19.70;17.20;;;;;;4953686;28;20035;-73
2022/03/23 13:22:38;;;;;;;8.52;3.63;;;19.70;17.10;;;;;;4948972;28;20028;-73